Time;durP1;ratioP1;P1;durP2;ratioP2;P2;SDS_P1;SDS_P2;PMS_P1;PMS_P2;Temp;Humidity;BMP_temperature;BMP_pressure;BME280_temperature;BME280_humidity;BME280_pressure;Samples;Min_cycle;Max_cycle;Signal;HPM_P1;HPM_P2
2021/03/22 00:02:10;;;;;;;38.60;5.28;;;;;;;4.55;73.83;101091.03;4998263;28;20061;-73
2021/03/22 00:04:37;;;;;;;29.00;5.05;;;;;;;4.36;74.37;101090.50;4997798;28;20053;-74
2021/03/22 00:07:03;;;;;;;25.83;5.65;;;;;;;4.40;74.74;101086.06;4998019;28;20106;-74
2021/03/22 00:09:29;;;;;;;26.70;4.78;;;;;;;4.30;74.69;101074.81;5015171;28;20064;-74
2021/03/22 00:11:55;;;;;;;25.45;3.92;;;;;;;4.40;74.71;101086.06;5015531;28;20139;-74
2021/03/22 00:14:22;;;;;;;33.15;4.93;;;;;;;4.37;75.31;101089.63;4999075;28;20062;-75
2021/03/22 00:16:48;;;;;;;34.28;5.13;;;;;;;4.41;75.23;101087.78;5016449;28;20050;-74
2021/03/22 00:19:14;;;;;;;39.60;6.28;;;;;;;4.37;74.61;101084.34;4999087;28;20343;-73
2021/03/22 00:21:41;;;;;;;25.45;4.28;;;;;;;4.34;74.77;101081.75;5019376;28;20056;-74
2021/03/22 00:24:08;;;;;;;34.38;5.25;;;;;;;4.31;74.90;101092.38;5001583;28;20053;-74
2021/03/22 00:26:35;;;;;;;31.45;4.35;;;;;;;4.29;75.03;101079.19;5018474;28;20057;-74
2021/03/22 00:29:03;;;;;;;18.73;4.07;;;;;;;4.27;75.29;101077.50;5018462;28;20321;-74
2021/03/22 00:31:29;;;;;;;42.42;4.90;;;;;;;4.30;75.23;101075.66;5018685;28;20111;-74
2021/03/22 00:33:55;;;;;;;29.10;4.78;;;;;;;4.35;74.90;101078.19;5018619;28;20140;-74
2021/03/22 00:36:21;;;;;;;27.65;4.05;;;;;;;4.37;75.17;101083.47;5018544;28;20402;-74
2021/03/22 00:38:49;;;;;;;26.08;4.30;;;;;;;4.36;74.85;101069.34;5001315;28;20054;-74
2021/03/22 00:41:15;;;;;;;25.75;3.80;;;;;;;4.36;74.22;101066.72;5018333;28;20403;-74
2021/03/22 00:43:41;;;;;;;38.85;5.22;;;;;;;4.37;74.38;101063.19;5018220;28;20057;-74
2021/03/22 00:46:07;;;;;;;25.27;4.53;;;;;;;4.26;74.47;101062.53;5018153;28;20188;-74
2021/03/22 00:48:35;;;;;;;28.83;4.72;;;;;;;4.27;74.77;101061.63;4984788;28;20056;-74
2021/03/22 00:51:06;;;;;;;30.25;4.35;;;;;;;4.27;75.05;101067.81;5001054;28;20056;-74
2021/03/22 00:53:34;;;;;;;28.55;4.55;;;;;;;4.27;75.17;101064.28;5018458;28;20098;-74
2021/03/22 00:56:01;;;;;;;22.58;4.07;;;;;;;4.32;75.36;101070.34;5018444;28;20089;-74
2021/03/22 00:58:27;;;;;;;29.88;4.80;;;;;;;4.30;75.38;101069.50;5000766;28;20127;-74
2021/03/22 01:00:56;;;;;;;25.88;4.95;;;;;;;4.32;75.04;101070.34;5000562;28;20058;-74
2021/03/22 01:03:26;;;;;;;18.15;4.00;;;;;;;4.35;75.32;101073.78;5017747;28;20092;-74
2021/03/22 01:05:53;;;;;;;33.78;3.67;;;;;;;4.20;75.81;101063.53;5000905;28;20057;-74
2021/03/22 01:08:21;;;;;;;33.40;4.55;;;;;;;4.21;75.83;101058.19;5018031;28;20359;-74
2021/03/22 01:11:00;;;;;;;25.58;4.18;;;;;;;4.29;75.47;101070.38;5000482;28;20053;-73
2021/03/22 01:13:43;;;;;;;32.60;4.90;;;;;;;4.26;76.07;101065.19;5017718;28;20435;-74
2021/03/22 01:16:23;;;;;;;26.60;4.55;;;;;;;4.29;75.61;101065.97;5001743;28;20053;-74
2021/03/22 01:18:52;;;;;;;27.02;3.88;;;;;;;4.15;75.94;101045.09;5017870;28;20053;-73
2021/03/22 01:21:30;;;;;;;33.38;5.20;;;;;;;4.37;75.50;101065.84;5017349;28;20058;-74
2021/03/22 01:23:58;;;;;;;31.92;4.53;;;;;;;4.30;75.50;101058.94;5000282;28;20336;-73
2021/03/22 01:26:28;;;;;;;23.00;4.30;;;;;;;4.29;75.82;101050.13;5017470;28;20081;-74
2021/03/22 01:28:55;;;;;;;34.97;7.37;;;;;;;4.32;76.03;101044.75;5017829;28;20489;-73
2021/03/22 01:31:22;;;;;;;26.33;3.95;;;;;;;4.23;75.87;101029.13;5017298;28;20635;-73
2021/03/22 01:33:51;;;;;;;21.17;4.07;;;;;;;4.27;76.21;101028.16;5017680;28;20050;-73
2021/03/22 01:36:21;;;;;;;30.95;4.45;;;;;;;4.15;76.71;101013.41;5017244;28;20092;-73
2021/03/22 01:38:49;;;;;;;19.90;4.20;;;;;;;4.24;76.85;101036.13;5000072;28;20046;-73
2021/03/22 01:41:37;;;;;;;25.98;5.97;;;;;;;4.24;77.02;101033.50;5017233;28;20111;-73
2021/03/22 01:44:32;;;;;;;32.50;4.85;;;;;;;4.20;77.33;101031.84;5017359;28;20387;-73
2021/03/22 01:47:00;;;;;;;31.10;4.22;;;;;;;4.16;77.39;101025.75;5016871;28;20129;-74
2021/03/22 01:49:33;;;;;;;30.08;4.35;;;;;;;4.17;77.82;101029.22;5017321;28;20050;-74
2021/03/22 01:52:00;;;;;;;36.08;4.65;;;;;;;4.07;78.21;101029.44;5017284;28;20054;-74
2021/03/22 01:54:26;;;;;;;28.70;4.93;;;;;;;4.02;78.48;101033.03;5016977;28;20104;-74
2021/03/22 01:56:54;;;;;;;24.38;5.47;;;;;;;4.05;78.49;101025.06;5016989;28;20053;-74
2021/03/22 01:59:29;;;;;;;34.58;5.47;;;;;;;4.06;78.91;101026.81;5022064;28;20343;-74
2021/03/22 02:02:01;;;;;;;23.52;3.95;;;;;;;4.21;78.35;101037.06;5036790;28;20102;-74
2021/03/22 02:04:29;;;;;;;36.20;5.57;;;;;;;4.14;78.90;101027.53;5019378;28;20107;-74
2021/03/22 02:06:56;;;;;;;23.00;3.92;;;;;;;4.15;78.79;101031.03;5036785;28;20053;-74
2021/03/22 02:09:22;;;;;;;26.58;4.45;;;;;;;4.20;79.16;101026.53;5036384;28;20045;-74
2021/03/22 02:11:48;;;;;;;27.23;5.25;;;;;;;4.15;79.41;101021.31;5036463;28;20407;-74
2021/03/22 02:14:15;;;;;;;30.02;5.35;;;;;;;4.14;79.75;101014.31;5019150;28;20049;-74
2021/03/22 02:17:04;;;;;;;36.28;6.13;;;;;;;4.06;80.11;101014.50;5036225;28;20577;-74
2021/03/22 02:19:49;;;;;;;30.58;4.40;;;;;;;4.03;80.45;101013.69;5036257;28;20068;-74
2021/03/22 02:22:37;;;;;;;25.05;4.47;;;;;;;3.97;81.29;101014.66;5036180;28;20135;-74
2021/03/22 02:25:10;;;;;;;28.48;4.97;;;;;;;4.06;81.04;101017.13;5036341;28;20053;-74
2021/03/22 02:27:52;;;;;;;38.47;5.20;;;;;;;4.03;81.24;101008.41;5036274;28;20057;-74
2021/03/22 02:30:37;;;;;;;27.35;4.40;;;;;;;4.07;81.26;101015.34;5036105;28;20107;-74
2021/03/22 02:33:27;;;;;;;33.65;4.75;;;;;;;4.04;81.33;101012.78;5036124;28;20088;-74
2021/03/22 02:36:22;;;;;;;21.35;4.03;;;;;;;4.02;81.42;101015.44;5036084;28;20450;-74
2021/03/22 02:39:00;;;;;;;23.17;3.80;;;;;;;4.02;81.64;101007.50;5031355;28;20049;-74
2021/03/22 02:41:42;;;;;;;41.28;4.97;;;;;;;3.98;81.79;101004.97;5035884;28;20107;-73
2021/03/22 02:44:29;;;;;;;26.13;4.80;;;;;;;4.00;81.88;101011.09;5035638;28;20123;-74
2021/03/22 02:47:05;;;;;;;29.00;4.88;;;;;;;4.06;81.64;101008.31;5037971;28;20057;-74
2021/03/22 02:49:36;;;;;;;34.30;4.93;;;;;;;4.18;81.29;101000.16;5037802;28;20045;-73
2021/03/22 02:52:37;;;;;;;26.33;3.80;;;;;;;4.08;81.63;101002.09;5035951;28;20049;-74
2021/03/22 02:55:18;;;;;;;31.80;6.70;;;;;;;3.99;82.56;101009.34;5041898;28;20346;-74
2021/03/22 02:57:53;;;;;;;38.75;4.18;;;;;;;3.93;83.10;100997.13;5018231;28;20050;-73
2021/03/22 03:00:27;;;;;;;25.65;6.00;;;;;;;3.90;83.40;100995.44;5022033;28;20061;-73
2021/03/22 03:02:56;;;;;;;30.00;4.45;;;;;;;3.88;83.98;100999.84;5015906;28;20073;-73
2021/03/22 03:05:26;;;;;;;28.73;5.22;;;;;;;3.80;84.15;101009.69;5016109;28;20515;-73
2021/03/22 03:07:57;;;;;;;26.05;4.45;;;;;;;3.84;84.19;101014.03;5015982;28;20050;-74
2021/03/22 03:10:23;;;;;;;;;;;;;;;3.87;84.38;101015.75;4999095;28;20081;-74
2021/03/22 03:12:50;;;;;;;25.30;4.85;;;;;;;3.86;84.47;101017.50;5015670;28;20401;-74
2021/03/22 03:15:18;;;;;;;24.55;4.65;;;;;;;3.89;84.36;101014.81;5015601;28;20371;-74
2021/03/22 03:17:47;;;;;;;32.28;5.45;;;;;;;3.97;84.07;101016.44;5015652;28;20355;-73
2021/03/22 03:20:21;;;;;;;27.45;5.65;;;;;;;3.98;84.32;101015.53;5015350;28;20045;-74
2021/03/22 03:22:47;;;;;;;25.00;6.00;;;;;;;3.96;83.96;101012.91;5015809;28;20049;-73
2021/03/22 03:25:14;;;;;;;27.48;5.07;;;;;;;3.95;83.88;101008.53;5014625;28;20119;-73
2021/03/22 03:27:40;;;;;;;29.33;5.30;;;;;;;3.82;84.73;101009.66;4998219;28;20424;-73
2021/03/22 03:30:11;;;;;;;34.63;5.03;;;;;;;3.88;85.05;101025.41;4998276;28;20077;-73
2021/03/22 03:32:37;;;;;;;35.83;5.93;;;;;;;3.88;84.87;101014.84;5015715;28;20061;-73
2021/03/22 03:35:08;;;;;;;27.67;5.70;;;;;;;3.92;84.66;101017.38;5014470;28;20057;-75
2021/03/22 03:37:35;;;;;;;29.77;5.55;;;;;;;3.89;84.61;101013.94;4998347;28;20065;-74
2021/03/22 03:40:05;;;;;;;39.38;5.70;;;;;;;3.93;84.50;101020.91;5015104;28;20324;-74
2021/03/22 03:42:31;;;;;;;32.43;5.83;;;;;;;4.01;84.61;101023.38;5015198;28;20050;-74
2021/03/22 03:44:57;;;;;;;44.90;5.63;;;;;;;3.99;84.97;101034.00;5015107;28;20318;-74
2021/03/22 03:47:23;;;;;;;33.95;6.53;;;;;;;3.89;85.00;101037.69;5015535;28;20062;-74
2021/03/22 03:49:49;;;;;;;36.10;5.88;;;;;;;3.92;85.22;101038.50;4997890;28;20060;-74
2021/03/22 03:52:15;;;;;;;31.02;6.00;;;;;;;3.99;84.89;101035.75;5015358;28;20347;-74
2021/03/22 03:54:42;;;;;;;30.17;5.50;;;;;;;3.98;85.19;101026.09;5000549;28;20058;-74
2021/03/22 03:57:08;;;;;;;33.08;6.57;;;;;;;3.88;85.33;101026.25;5001923;28;20077;-74
2021/03/22 03:59:34;;;;;;;32.70;6.07;;;;;;;3.88;85.32;101030.69;5008949;28;20045;-74
2021/03/22 04:02:00;;;;;;;30.00;6.38;;;;;;;3.80;85.84;101031.72;5038841;28;20058;-74
2021/03/22 04:04:27;;;;;;;36.63;7.70;;;;;;;3.76;85.88;101026.50;5021654;28;20328;-74
2021/03/22 04:06:53;;;;;;;29.02;6.43;;;;;;;3.75;86.05;101025.63;5021669;28;20057;-74
2021/03/22 04:09:21;;;;;;;34.63;6.20;;;;;;;3.67;86.44;101033.69;5039034;28;20080;-74
2021/03/22 04:11:49;;;;;;;30.88;7.03;;;;;;;3.71;85.94;101036.28;5038904;28;20050;-74
2021/03/22 04:14:22;;;;;;;37.40;6.50;;;;;;;3.71;86.13;101039.78;5038590;28;20063;-74
2021/03/22 04:16:50;;;;;;;28.80;6.00;;;;;;;3.70;85.86;101031.91;5038587;28;20049;-74
2021/03/22 04:19:17;;;;;;;30.65;6.07;;;;;;;3.70;86.13;101042.47;5038414;28;20046;-74
2021/03/22 04:21:44;;;;;;;29.58;6.60;;;;;;;3.69;86.19;101038.94;5038653;28;20057;-74
2021/03/22 04:24:12;;;;;;;29.05;5.53;;;;;;;3.58;86.69;101040.91;5038689;28;20052;-74
2021/03/22 04:26:38;;;;;;;39.45;7.05;;;;;;;3.60;86.85;101044.41;5021087;28;20053;-74
2021/03/22 04:29:06;;;;;;;24.75;5.93;;;;;;;3.65;86.69;101048.69;5020986;28;20316;-74
2021/03/22 04:31:32;;;;;;;26.95;5.55;;;;;;;3.65;86.36;101048.69;5020846;28;20087;-74
2021/03/22 04:34:00;;;;;;;32.78;5.72;;;;;;;3.72;86.31;101049.47;5038294;28;20482;-74
2021/03/22 04:36:32;;;;;;;28.80;5.70;;;;;;;3.67;86.48;101044.25;5038494;28;20053;-74
2021/03/22 04:38:59;;;;;;;28.08;5.90;;;;;;;3.55;86.24;101028.66;5038117;28;20069;-74
2021/03/22 04:41:26;;;;;;;32.45;6.13;;;;;;;3.74;86.17;101049.41;5037725;28;20080;-74
2021/03/22 04:43:53;;;;;;;32.03;6.18;;;;;;;3.74;85.88;101050.31;5020558;28;20457;-74
2021/03/22 04:46:20;;;;;;;35.97;7.40;;;;;;;3.77;85.70;101052.00;5038107;28;20132;-74
2021/03/22 04:48:57;;;;;;;32.78;6.05;;;;;;;3.73;85.86;101047.69;5022393;28;20057;-73
2021/03/22 04:51:23;;;;;;;36.45;6.43;;;;;;;3.72;85.96;101051.22;5037963;28;20053;-74
2021/03/22 04:53:50;;;;;;;37.15;6.32;;;;;;;3.73;85.97;101052.97;5037811;28;20457;-74
2021/03/22 04:56:19;;;;;;;37.65;6.10;;;;;;;3.70;86.32;101053.03;5038031;28;20079;-73
2021/03/22 04:58:45;;;;;;;31.48;5.95;;;;;;;3.73;86.03;101045.03;5019637;28;20061;-73
2021/03/22 05:01:11;;;;;;;28.75;6.72;;;;;;;3.65;86.06;101042.56;5017871;28;20432;-73
2021/03/22 05:03:37;;;;;;;30.08;5.80;;;;;;;3.65;86.22;101056.59;5017241;28;20477;-73
2021/03/22 05:06:04;;;;;;;27.48;6.47;;;;;;;3.56;86.48;101051.50;5017205;28;20466;-73
2021/03/22 05:08:31;;;;;;;24.45;6.18;;;;;;;3.73;86.23;101040.66;5018224;28;20061;-73
2021/03/22 05:11:00;;;;;;;35.58;5.93;;;;;;;3.72;85.85;101036.25;5018370;28;20049;-73
2021/03/22 05:13:30;;;;;;;30.35;6.78;;;;;;;3.77;85.88;101044.09;5020235;28;20049;-74
2021/03/22 05:15:57;;;;;;;30.15;6.63;;;;;;;3.71;86.34;101042.41;5020701;28;20092;-74
2021/03/22 05:18:26;;;;;;;25.88;6.53;;;;;;;3.68;86.26;101047.75;5020059;28;20053;-74
2021/03/22 05:21:03;;;;;;;28.30;5.85;;;;;;;3.71;86.09;101049.47;5017714;28;20050;-73
2021/03/22 05:23:31;;;;;;;27.23;6.32;;;;;;;3.64;86.56;101035.50;5017818;28;20081;-73
2021/03/22 05:25:58;;;;;;;31.00;6.88;;;;;;;3.69;86.64;101054.78;5000577;28;20642;-73
2021/03/22 05:28:27;;;;;;;27.25;6.75;;;;;;;3.63;86.77;101044.34;5017839;28;20054;-73
2021/03/22 05:30:54;;;;;;;31.83;6.25;;;;;;;3.51;87.24;101040.16;5017588;28;20057;-75
2021/03/22 05:33:22;;;;;;;30.05;6.28;;;;;;;3.52;87.13;101053.31;5017345;28;20056;-75
2021/03/22 05:35:51;;;;;;;26.02;6.78;;;;;;;3.60;87.26;101053.16;5017177;28;20516;-75
2021/03/22 05:38:18;;;;;;;29.13;6.22;;;;;;;3.56;87.18;101053.25;5017403;28;20104;-75
2021/03/22 05:40:51;;;;;;;25.80;6.18;;;;;;;3.55;87.17;101057.69;4999670;28;20053;-73
2021/03/22 05:43:42;;;;;;;28.35;6.90;;;;;;;3.47;87.46;101062.19;5017133;28;20054;-74
2021/03/22 05:46:41;;;;;;;33.15;6.93;;;;;;;3.40;87.57;101066.72;5017079;28;20129;-73
2021/03/22 05:49:27;;;;;;;32.80;7.47;;;;;;;3.26;88.37;101053.75;5017297;28;20057;-73
2021/03/22 05:52:05;;;;;;;44.38;8.73;;;;;;;3.29;88.28;101063.38;5016991;28;20058;-74
2021/03/22 05:54:41;;;;;;;29.27;7.28;;;;;;;3.30;88.52;101058.09;5016923;28;20054;-73
2021/03/22 05:57:18;;;;;;;41.10;8.85;;;;;;;3.32;88.57;101053.66;5017069;28;20050;-73
2021/03/22 05:59:56;;;;;;;29.98;7.20;;;;;;;3.39;88.44;101057.06;5025673;28;20107;-74
2021/03/22 06:02:57;;;;;;;29.90;8.13;;;;;;;3.44;88.37;101060.50;5036581;28;20078;-74
2021/03/22 06:05:24;;;;;;;26.48;6.03;;;;;;;3.49;88.05;101056.00;5036541;28;20520;-73
2021/03/22 06:07:55;;;;;;;32.85;7.40;;;;;;;3.50;88.12;101054.25;5019139;28;20079;-74
2021/03/22 06:10:24;;;;;;;34.25;8.45;;;;;;;3.50;88.08;101065.66;5036817;28;20049;-74
2021/03/22 06:12:57;;;;;;;38.38;7.60;;;;;;;3.56;87.89;101064.69;5036359;28;20045;-73
2021/03/22 06:15:37;;;;;;;31.73;8.40;;;;;;;3.69;87.97;101056.56;5036670;28;20053;-74
2021/03/22 06:18:06;;;;;;;44.58;10.10;;;;;;;3.73;87.49;101061.75;5035414;28;20053;-72
2021/03/22 06:20:37;;;;;;;38.72;9.02;;;;;;;3.76;87.76;101063.47;5036002;28;20056;-73
2021/03/22 06:23:19;;;;;;;;;;;;;;;3.74;88.06;101070.53;5036114;28;20098;-74
2021/03/22 06:25:46;;;;;;;34.90;9.30;;;;;;;3.69;88.16;101067.13;5036074;28;19944;-73
2021/03/22 06:28:15;;;;;;;35.35;9.40;;;;;;;3.71;88.20;101068.81;5019057;28;20049;-74
2021/03/22 06:30:57;;;;;;;35.55;10.38;;;;;;;3.64;88.62;101080.38;5019060;28;20053;-73
2021/03/22 06:33:29;;;;;;;39.05;9.50;;;;;;;3.69;88.61;101069.78;5036290;28;20057;-73
2021/03/22 06:35:56;;;;;;;39.90;10.02;;;;;;;3.64;89.08;101080.38;5036462;28;20080;-72
2021/03/22 06:38:22;;;;;;;36.00;10.60;;;;;;;3.71;89.32;101081.16;5036492;28;20069;-72
2021/03/22 06:40:48;;;;;;;38.22;10.38;;;;;;;3.73;89.02;101074.09;5036604;28;20053;-73
2021/03/22 06:43:18;;;;;;;43.83;10.07;;;;;;;3.66;89.14;101068.91;5036073;28;20057;-72
2021/03/22 06:45:50;;;;;;;41.00;10.57;;;;;;;3.73;89.14;101084.66;5036123;28;20103;-73
2021/03/22 06:48:18;;;;;;;31.92;9.63;;;;;;;3.72;89.43;101082.91;5018339;28;20100;-71
2021/03/22 06:50:47;;;;;;;40.28;10.40;;;;;;;3.70;89.69;101074.16;5035712;28;20100;-78
2021/03/22 06:53:48;;;;;;;32.95;10.45;;;;;;;3.79;89.45;101079.25;5018089;28;20669;-76
2021/03/22 06:56:33;;;;;;;33.58;9.82;;;;;;;3.88;89.14;101084.38;5035252;28;20417;-74
2021/03/22 06:59:17;;;;;;;40.72;10.68;;;;;;;3.99;88.62;101085.94;5033210;28;20049;-76
2021/03/22 07:01:45;;;;;;;40.03;9.98;;;;;;;3.98;88.58;101074.50;5015714;28;20406;-74
2021/03/22 07:04:32;;;;;;;34.78;10.32;;;;;;;4.06;88.00;101084.94;5015754;28;20418;-72
2021/03/22 07:07:10;;;;;;;46.55;11.02;;;;;;;4.03;88.24;101082.38;5015964;28;20080;-75
2021/03/22 07:09:40;;;;;;;38.78;10.25;;;;;;;4.15;88.17;101092.66;5016781;28;20056;-77
2021/03/22 07:12:10;;;;;;;33.88;10.90;;;;;;;4.12;87.47;101086.56;5024433;28;20049;-75
2021/03/22 07:14:37;;;;;;;44.38;11.80;;;;;;;4.10;87.12;101085.75;5036074;28;20057;-73
2021/03/22 07:17:15;;;;;;;37.05;11.57;;;;;;;4.13;87.13;101097.13;5020412;28;20054;-75
2021/03/22 07:19:42;;;;;;;33.65;11.23;;;;;;;4.25;86.86;101103.09;5018793;28;20049;-74
2021/03/22 07:22:21;;;;;;;38.20;11.43;;;;;;;4.16;87.11;101104.13;4997662;28;20050;-74
2021/03/22 07:25:06;;;;;;;43.00;12.23;;;;;;;4.21;87.30;101103.13;5013812;28;20466;-75
2021/03/22 07:27:43;;;;;;;36.78;11.98;;;;;;;4.29;86.95;101105.63;5014162;28;20439;-74
2021/03/22 07:30:27;;;;;;;35.67;10.93;;;;;;;4.45;86.18;101102.66;5014447;28;20406;-74
2021/03/22 07:33:20;;;;;;;46.53;12.70;;;;;;;4.32;86.15;101116.13;4997969;28;20359;-74
2021/03/22 07:35:54;;;;;;;34.70;11.55;;;;;;;4.48;85.50;101113.19;4996895;28;20050;-73
2021/03/22 07:38:30;;;;;;;31.70;11.32;;;;;;;4.40;85.46;101108.06;5014474;28;20387;-74
2021/03/22 07:41:01;;;;;;;35.35;10.90;;;;;;;4.43;85.11;101110.66;5021508;28;20092;-77
2021/03/22 07:43:49;;;;;;;34.55;10.50;;;;;;;4.45;84.99;101114.13;5023309;28;20089;-77
2021/03/22 07:46:34;;;;;;;37.80;10.98;;;;;;;4.47;84.91;101116.75;5003903;28;20100;-77
2021/03/22 07:49:00;;;;;;;30.80;10.95;;;;;;;4.57;84.82;101114.78;5015510;28;20383;-77
2021/03/22 07:51:44;;;;;;;35.65;10.98;;;;;;;4.70;83.62;101112.75;5016922;28;20050;-75
2021/03/22 07:54:36;;;;;;;36.97;11.00;;;;;;;4.89;82.93;101122.03;5034921;28;20053;-77
2021/03/22 07:57:26;;;;;;;30.80;10.25;;;;;;;4.91;82.41;101124.66;5035121;28;20347;-76
2021/03/22 08:00:30;;;;;;;29.35;11.80;;;;;;;4.78;81.97;101117.88;5009380;28;20042;-76
2021/03/22 08:03:05;;;;;;;26.70;8.50;;;;;;;4.83;81.73;101127.44;5032917;28;20351;-75
2021/03/22 08:06:16;;;;;;;30.25;10.55;;;;;;;4.90;81.50;101133.47;5028561;28;20081;-76
2021/03/22 08:08:53;;;;;;;28.90;10.07;;;;;;;5.03;81.00;101116.41;5022578;28;20115;-75
2021/03/22 08:11:41;;;;;;;36.28;11.00;;;;;;;5.25;81.05;101123.00;5034626;28;20431;-76
2021/03/22 08:14:11;;;;;;;29.00;11.85;;;;;;;5.29;80.00;101130.84;5044653;28;20041;-76
2021/03/22 08:17:04;;;;;;;25.85;10.40;;;;;;;5.19;80.39;101124.03;5046059;28;20093;-76
2021/03/22 08:19:47;;;;;;;24.02;9.18;;;;;;;5.12;80.27;101123.28;5034185;28;20050;-75
2021/03/22 08:22:40;;;;;;;25.17;9.75;;;;;;;4.87;82.71;101133.56;5034004;28;20162;-75
2021/03/22 08:25:34;;;;;;;25.17;9.68;;;;;;;4.68;85.11;101128.63;5033217;28;20140;-76
2021/03/22 08:28:39;;;;;;;34.17;8.93;;;;;;;4.65;86.73;101133.13;5017036;28;20049;-75
2021/03/22 08:31:42;;;;;;;22.77;8.05;;;;;;;4.69;86.57;101133.03;5028437;28;20056;-74
2021/03/22 08:34:26;;;;;;;24.55;8.95;;;;;;;4.61;87.07;101140.25;5017250;28;20057;-74
2021/03/22 08:37:06;;;;;;;23.00;9.02;;;;;;;4.59;88.39;101142.91;5034702;28;20053;-74
2021/03/22 08:39:59;;;;;;;28.20;9.32;;;;;;;4.70;87.85;101145.38;5034292;28;20053;-75
2021/03/22 08:42:29;;;;;;;21.23;7.43;;;;;;;4.61;87.69;101143.78;5037609;28;20132;-73
2021/03/22 08:45:17;;;;;;;18.63;7.55;;;;;;;4.64;87.83;101139.31;5020227;28;20053;-74
2021/03/22 08:48:05;;;;;;;22.67;7.55;;;;;;;4.54;88.72;101136.00;5037862;28;20053;-74
2021/03/22 08:50:34;;;;;;;26.23;8.27;;;;;;;4.70;89.14;101147.13;5037880;28;20084;-74
2021/03/22 08:53:10;;;;;;;14.98;7.03;;;;;;;4.76;88.74;101144.34;5040671;28;20426;-74
2021/03/22 08:55:39;;;;;;;16.80;7.10;;;;;;;4.75;89.50;101145.28;5057864;28;20434;-74
2021/03/22 08:58:22;;;;;;;20.95;6.47;;;;;;;4.75;88.08;101148.75;5041618;28;20068;-74
2021/03/22 09:00:50;;;;;;;21.85;7.15;;;;;;;4.70;88.26;101141.84;5036334;28;20099;-75
2021/03/22 09:03:23;;;;;;;20.80;6.05;;;;;;;4.74;87.88;101144.38;5012895;28;20057;-75
2021/03/22 09:06:08;;;;;;;21.83;6.03;;;;;;;4.89;87.20;101151.13;5037840;28;20049;-75
2021/03/22 09:09:17;;;;;;;13.57;6.07;;;;;;;4.95;86.78;101142.19;5037385;28;20065;-75
2021/03/22 09:11:49;;;;;;;17.23;5.72;;;;;;;4.99;86.36;101145.63;5017946;28;20058;-74
2021/03/22 09:14:16;;;;;;;14.90;6.05;;;;;;;4.95;85.71;101141.34;5019844;28;20049;-76
2021/03/22 09:16:49;;;;;;;19.60;6.85;;;;;;;5.01;85.91;101147.34;5037467;28;20065;-75
2021/03/22 09:19:16;;;;;;;16.77;5.88;;;;;;;5.05;85.18;101142.84;5036783;28;20338;-76
2021/03/22 09:21:51;;;;;;;15.77;5.72;;;;;;;5.08;84.13;101147.22;5036637;28;20049;-75
2021/03/22 09:24:38;;;;;;;19.92;5.63;;;;;;;5.31;84.27;101146.69;5035192;28;20046;-76
2021/03/22 09:27:16;;;;;;;10.18;5.07;;;;;;;5.43;81.46;101145.53;5037463;28;20705;-76
2021/03/22 09:29:49;;;;;;;15.38;5.75;;;;;;;5.53;82.06;101144.41;5037304;28;20053;-74
2021/03/22 09:32:31;;;;;;;13.10;5.10;;;;;;;5.79;80.65;101139.38;5037478;28;20049;-75
2021/03/22 09:35:16;;;;;;;17.80;5.90;;;;;;;5.95;79.71;101142.50;5037234;28;20111;-74
2021/03/22 09:38:21;;;;;;;15.93;5.32;;;;;;;5.82;78.60;101153.41;5036813;28;20111;-75
2021/03/22 09:40:54;;;;;;;14.95;4.68;;;;;;;5.61;79.47;101149.50;5019364;28;20107;-75
2021/03/22 09:43:28;;;;;;;11.30;4.70;;;;;;;5.40;80.19;101150.91;5019586;28;20133;-75
2021/03/22 09:45:55;;;;;;;14.23;5.45;;;;;;;5.25;82.61;101150.38;5037201;28;20183;-75
2021/03/22 09:48:21;;;;;;;15.82;5.53;;;;;;;5.18;83.67;101159.34;5037240;28;20064;-74
2021/03/22 09:50:48;;;;;;;20.10;7.28;;;;;;;5.19;83.69;101154.91;5036992;28;20390;-75
2021/03/22 09:53:44;;;;;;;20.25;6.82;;;;;;;5.28;84.12;101155.56;5036848;28;20052;-74
2021/03/22 09:56:28;;;;;;;18.83;6.10;;;;;;;5.51;82.73;101159.44;5047681;28;20114;-74
2021/03/22 09:59:23;;;;;;;22.27;6.10;;;;;;;5.58;83.43;101166.34;5010532;28;20050;-74
2021/03/22 10:01:52;;;;;;;18.75;5.72;;;;;;;5.44;80.46;101169.31;5035873;28;20060;-75
2021/03/22 10:04:21;;;;;;;18.13;5.70;;;;;;;5.20;81.19;101168.13;5036540;28;20053;-75
2021/03/22 10:06:59;;;;;;;13.68;5.38;;;;;;;5.15;83.15;101170.00;5019643;28;20089;-74
2021/03/22 10:09:38;;;;;;;21.17;6.28;;;;;;;5.01;83.09;101162.38;5038494;28;20050;-74
2021/03/22 10:12:33;;;;;;;16.30;5.60;;;;;;;4.96;83.81;101162.44;5048234;28;20053;-77
2021/03/22 10:15:21;;;;;;;14.43;5.75;;;;;;;5.09;84.46;101164.81;5022769;28;20045;-74
2021/03/22 10:18:00;;;;;;;21.65;6.25;;;;;;;5.22;83.27;101168.94;5036565;28;20045;-74
2021/03/22 10:20:41;;;;;;;20.70;5.90;;;;;;;5.35;81.72;101166.91;5035737;28;20665;-74
2021/03/22 10:23:47;;;;;;;16.25;5.90;;;;;;;5.41;80.53;101166.72;5035309;28;20355;-74
2021/03/22 10:26:28;;;;;;;13.20;5.70;;;;;;;5.54;80.91;101171.75;4995710;28;20104;-74
2021/03/22 10:29:33;;;;;;;;;;;;;;;5.64;81.27;101167.09;5016862;28;20060;-76
2021/03/22 10:32:16;;;;;;;19.35;5.78;;;;;;;5.77;79.61;101163.25;4994705;28;20065;-76
2021/03/22 10:34:48;;;;;;;17.13;5.97;;;;;;;5.86;80.25;101156.84;4978490;28;20050;-74
2021/03/22 10:37:29;;;;;;;19.25;5.57;;;;;;;5.87;77.83;101165.69;5008141;28;20065;-73
2021/03/22 10:40:02;;;;;;;19.92;7.13;;;;;;;5.92;78.36;101162.00;4998982;28;20053;-74
2021/03/22 10:42:33;;;;;;;20.73;7.25;;;;;;;5.88;78.03;101156.81;5015974;28;20066;-74
2021/03/22 10:44:59;;;;;;;;;;;;;;;6.07;77.79;101154.59;5016841;28;20053;-75
2021/03/22 10:47:29;;;;;;;16.52;5.47;;;;;;;6.06;78.14;101159.00;5034722;28;20671;-74
2021/03/22 10:50:25;;;;;;;21.98;6.03;;;;;;;6.05;77.44;101173.19;5035780;28;20053;-76
2021/03/22 10:53:20;;;;;;;18.33;5.63;;;;;;;6.14;76.75;101171.22;5034235;28;20323;-74
2021/03/22 10:55:49;;;;;;;18.33;5.53;;;;;;;6.20;75.54;101173.69;5023057;28;20083;-74
2021/03/22 10:58:33;;;;;;;18.00;5.88;;;;;;;6.15;74.61;101170.31;5017835;28;20061;-74
2021/03/22 11:01:07;;;;;;;21.52;6.38;;;;;;;6.12;75.28;101168.59;5033528;28;20053;-75
2021/03/22 11:03:35;;;;;;;18.35;6.28;;;;;;;6.30;76.70;101182.25;5034176;28;20057;-73
2021/03/22 11:06:13;;;;;;;14.43;6.07;;;;;;;6.48;73.55;101173.81;5035185;28;20128;-74
2021/03/22 11:08:43;;;;;;;15.63;5.93;;;;;;;6.52;71.94;101177.25;5035243;28;20145;-73
2021/03/22 11:11:17;;;;;;;15.75;5.20;;;;;;;6.51;70.94;101175.53;5035349;28;20103;-73
2021/03/22 11:13:49;;;;;;;20.30;4.95;;;;;;;6.52;71.10;101174.59;5035308;28;20057;-73
2021/03/22 11:16:33;;;;;;;18.50;5.03;;;;;;;6.61;69.78;101176.13;5035509;28;20128;-73
2021/03/22 11:19:25;;;;;;;17.80;6.18;;;;;;;6.46;69.82;101180.97;5035299;28;20056;-71
2021/03/22 11:21:55;;;;;;;13.02;5.28;;;;;;;6.50;71.11;101181.75;5034140;28;20128;-74
2021/03/22 11:24:40;;;;;;;15.80;6.07;;;;;;;6.47;70.21;101189.75;5034488;28;20053;-77
2021/03/22 11:27:10;;;;;;;16.00;6.40;;;;;;;6.43;71.04;101193.44;5035204;28;20061;-73
2021/03/22 11:29:56;;;;;;;19.75;7.00;;;;;;;6.58;71.66;101195.66;5017591;28;20051;-73
2021/03/22 11:32:28;;;;;;;20.13;6.40;;;;;;;6.60;72.60;101196.47;5034887;28;20131;-74
2021/03/22 11:34:56;;;;;;;23.17;6.10;;;;;;;6.65;70.63;101199.88;5017852;28;20128;-75
2021/03/22 11:37:30;;;;;;;20.92;6.30;;;;;;;6.73;70.07;101197.03;5034930;28;20059;-73
2021/03/22 11:40:16;;;;;;;21.77;7.78;;;;;;;6.61;70.41;101197.34;5034941;28;20085;-76
2021/03/22 11:42:55;;;;;;;18.40;6.88;;;;;;;6.67;71.71;101202.50;5034479;28;20061;-77
2021/03/22 11:45:27;;;;;;;27.33;6.50;;;;;;;6.68;69.96;101198.91;5034846;28;20103;-76
2021/03/22 11:47:53;;;;;;;24.60;7.18;;;;;;;6.70;71.24;101202.38;5017462;28;20063;-75
2021/03/22 11:51:00;;;;;;;18.08;5.50;;;;;;;6.72;67.41;101205.00;5017720;28;20060;-75
2021/03/22 11:53:26;;;;;;;24.10;6.68;;;;;;;6.59;67.56;101210.66;4988701;28;20410;-75
2021/03/22 11:55:56;;;;;;;20.88;6.72;;;;;;;6.58;68.12;101202.75;5017731;28;20049;-75
2021/03/22 11:58:40;;;;;;;19.58;6.45;;;;;;;6.72;69.72;101205.91;5017024;28;20045;-75
2021/03/22 12:01:17;;;;;;;21.08;6.85;;;;;;;6.75;70.34;101203.13;5033227;28;20430;-75